createdAt,value
2022-09-26T00:00:00.272Z,0.045
2022-09-26T00:01:00.426Z,0.045
2022-09-26T00:02:00.388Z,0.045
2022-09-26T00:03:00.302Z,0.045
2022-09-26T00:04:00.299Z,0.045
2022-09-26T00:05:00.293Z,0.045
2022-09-26T00:06:00.308Z,0.045
2022-09-26T00:07:00.539Z,0.045
2022-09-26T00:08:00.276Z,0.045
2022-09-26T00:09:00.276Z,0.045
2022-09-26T00:10:00.302Z,0.045
2022-09-26T00:11:00.272Z,0.045
2022-09-26T00:12:00.303Z,0.045
2022-09-26T00:13:00.529Z,0.045
2022-09-26T00:14:00.428Z,0.045
2022-09-26T00:15:00.305Z,0.045
2022-09-26T00:16:00.308Z,0.045
2022-09-26T00:17:00.402Z,0.045
2022-09-26T00:18:00.310Z,0.045
2022-09-26T00:19:00.419Z,0.045
2022-09-26T00:20:00.292Z,0.045
2022-09-26T00:21:00.302Z,0.045
2022-09-26T00:22:00.320Z,0.045
2022-09-26T00:23:00.279Z,0.045
2022-09-26T00:24:00.291Z,0.045
2022-09-26T00:25:00.494Z,0.045
2022-09-26T00:26:00.313Z,0.045
2022-09-26T00:27:00.380Z,0.045
2022-09-26T00:28:00.313Z,0.045
2022-09-26T00:29:00.592Z,0.045
2022-09-26T00:30:00.307Z,0.045
2022-09-26T00:31:00.618Z,0.045
2022-09-26T00:32:00.306Z,0.045
2022-09-26T00:33:00.298Z,0.045
2022-09-26T00:34:00.296Z,0.045
2022-09-26T00:35:00.303Z,0.045
2022-09-26T00:36:00.290Z,0.045
2022-09-26T00:37:00.530Z,0.045
2022-09-26T00:38:00.291Z,0.045
2022-09-26T00:39:00.315Z,0.045
2022-09-26T00:40:00.295Z,0.045
2022-09-26T00:41:00.372Z,0.045
2022-09-26T00:42:00.309Z,0.045
2022-09-26T00:43:00.419Z,0.045
2022-09-26T00:44:00.383Z,0.045
2022-09-26T00:45:00.294Z,0.045
2022-09-26T00:46:00.369Z,0.045
2022-09-26T00:47:00.303Z,0.045
2022-09-26T00:48:00.293Z,0.045
2022-09-26T00:49:00.455Z,0.045
2022-09-26T00:50:00.319Z,0.045
2022-09-26T00:51:00.300Z,0.045
2022-09-26T00:52:00.302Z,0.045
2022-09-26T00:53:00.312Z,0.045
2022-09-26T00:54:00.357Z,0.045
2022-09-26T00:55:00.503Z,0.045
2022-09-26T00:56:00.379Z,0.045
2022-09-26T00:57:00.285Z,0.045
2022-09-26T00:58:00.290Z,0.045
2022-09-26T00:59:00.551Z,0.045
2022-09-26T01:00:00.309Z,0.045
2022-09-26T01:01:00.738Z,0.045
2022-09-26T01:02:00.549Z,0.045
2022-09-26T01:03:00.315Z,0.045
2022-09-26T01:04:00.293Z,0.045
2022-09-26T01:05:00.300Z,0.045
2022-09-26T01:06:00.313Z,0.045
2022-09-26T01:07:00.428Z,0.045
2022-09-26T01:08:00.312Z,0.045
2022-09-26T01:09:00.302Z,0.045
2022-09-26T01:10:00.303Z,0.045
2022-09-26T01:11:00.296Z,0.045
2022-09-26T01:12:00.302Z,0.045
2022-09-26T01:13:00.432Z,0.045
2022-09-26T01:14:00.421Z,0.045
2022-09-26T01:15:00.288Z,0.045
2022-09-26T01:16:00.295Z,0.045
2022-09-26T01:17:00.388Z,0.045
2022-09-26T01:18:00.297Z,0.045
2022-09-26T01:19:00.447Z,0.045
2022-09-26T01:20:00.330Z,0.045
2022-09-26T01:21:00.284Z,0.045
2022-09-26T01:22:00.278Z,0.045
2022-09-26T01:23:00.311Z,0.045
2022-09-26T01:24:00.350Z,0.045
2022-09-26T01:25:00.554Z,0.045
2022-09-26T01:26:00.295Z,0.045
2022-09-26T01:27:00.325Z,0.045
2022-09-26T01:28:00.297Z,0.045
2022-09-26T01:29:00.457Z,0.045
2022-09-26T01:30:00.306Z,0.045
2022-09-26T01:31:00.555Z,0.045
2022-09-26T01:32:00.304Z,0.045
2022-09-26T01:33:00.297Z,0.045
2022-09-26T01:34:00.334Z,0.045
2022-09-26T01:35:00.291Z,0.045
2022-09-26T01:36:00.356Z,0.045
2022-09-26T01:37:00.485Z,0.045
2022-09-26T01:38:00.304Z,0.045
2022-09-26T01:39:00.295Z,0.045
2022-09-26T01:40:00.295Z,0.045
2022-09-26T01:41:00.400Z,0.045
2022-09-26T01:42:00.334Z,0.045
2022-09-26T01:43:00.456Z,0.045
2022-09-26T01:44:00.309Z,0.045
2022-09-26T01:45:00.351Z,0.045
2022-09-26T01:46:00.337Z,0.045
2022-09-26T01:47:00.313Z,0.045
2022-09-26T01:48:00.286Z,0.045
2022-09-26T01:49:00.440Z,0.045
2022-09-26T01:50:00.329Z,0.045
2022-09-26T01:51:00.300Z,0.045
2022-09-26T01:52:00.299Z,0.045
2022-09-26T01:53:00.385Z,0.045
2022-09-26T01:54:00.299Z,0.045
2022-09-26T01:55:00.422Z,0.045
2022-09-26T01:56:00.314Z,0.045
2022-09-26T01:57:00.296Z,0.045
2022-09-26T01:58:00.307Z,0.045
2022-09-26T01:59:00.278Z,0.045
2022-09-26T02:00:00.447Z,0.045
2022-09-26T02:01:00.553Z,0.045
2022-09-26T02:02:00.352Z,0.045
2022-09-26T02:03:00.315Z,0.045
2022-09-26T02:04:00.332Z,0.045
2022-09-26T02:05:00.305Z,0.045
2022-09-26T02:06:00.296Z,0.045
2022-09-26T02:07:00.419Z,0.045
2022-09-26T02:08:00.312Z,0.045
2022-09-26T02:09:00.286Z,0.045
2022-09-26T02:10:00.317Z,0.045
2022-09-26T02:11:00.292Z,0.045
2022-09-26T02:12:00.281Z,0.045
2022-09-26T02:13:00.431Z,0.045
2022-09-26T02:14:00.299Z,0.045
2022-09-26T02:15:00.482Z,0.090
2022-09-26T02:16:00.291Z,0.090
2022-09-26T02:17:00.348Z,0.090
2022-09-26T02:18:00.305Z,0.135
2022-09-26T02:19:00.414Z,0.180
2022-09-26T02:20:00.310Z,0.180
2022-09-26T02:21:00.291Z,0.180
2022-09-26T02:22:00.310Z,0.225
2022-09-26T02:23:00.302Z,0.270
2022-09-26T02:24:00.334Z,0.315
2022-09-26T02:25:00.774Z,0.405
2022-09-26T02:26:00.306Z,0.495
2022-09-26T02:27:00.292Z,0.585
2022-09-26T02:28:00.295Z,0.765
2022-09-26T02:29:00.824Z,0.945
2022-09-26T02:30:00.340Z,1.215
2022-09-26T02:31:00.538Z,1.485
2022-09-26T02:32:00.346Z,1.890
2022-09-26T02:33:00.292Z,2.385
2022-09-26T02:34:00.297Z,3.015
2022-09-26T02:35:00.310Z,3.690
2022-09-26T02:36:00.281Z,4.635
2022-09-26T02:37:00.648Z,5.760
2022-09-26T02:38:00.296Z,7.065
2022-09-26T02:39:00.304Z,8.595
2022-09-26T02:40:00.296Z,10.440
2022-09-26T02:41:00.407Z,12.600
2022-09-26T02:42:00.318Z,15.030
2022-09-26T02:43:00.467Z,17.820
2022-09-26T02:44:00.350Z,21.150
2022-09-26T02:45:00.349Z,24.660
2022-09-26T02:46:00.340Z,28.620
2022-09-26T02:47:00.294Z,33.300
2022-09-26T02:48:00.291Z,38.160
2022-09-26T02:49:00.560Z,43.560
2022-09-26T02:50:00.313Z,49.320
2022-09-26T02:51:00.320Z,55.440
2022-09-26T02:52:00.354Z,62.280
2022-09-26T02:53:00.386Z,69.480
2022-09-26T02:54:00.313Z,76.680
2022-09-26T02:55:00.442Z,84.600
2022-09-26T02:56:00.387Z,92.880
2022-09-26T02:57:00.473Z,100.800
2022-09-26T02:58:00.360Z,110.160
2022-09-26T02:59:00.338Z,119.520
2022-09-26T03:00:00.442Z,128.160
2022-09-26T03:01:00.500Z,138.240
2022-09-26T03:02:00.311Z,148.320
2022-09-26T03:03:00.347Z,159.120
2022-09-26T03:04:00.289Z,170.640
2022-09-26T03:05:00.427Z,181.440
2022-09-26T03:06:00.295Z,191.520
2022-09-26T03:07:00.463Z,204.480
2022-09-26T03:08:00.303Z,216.000
2022-09-26T03:09:00.292Z,228.960
2022-09-26T03:10:00.312Z,241.920
2022-09-26T03:11:00.307Z,257.760
2022-09-26T03:12:00.308Z,273.600
2022-09-26T03:13:00.440Z,290.880
2022-09-26T03:14:00.295Z,305.280
2022-09-26T03:15:00.313Z,319.680
2022-09-26T03:16:00.539Z,339.840
2022-09-26T03:17:00.300Z,368.640
2022-09-26T03:18:00.308Z,408.960
2022-09-26T03:19:00.456Z,446.400
2022-09-26T03:20:00.285Z,478.080
2022-09-26T03:21:00.304Z,504.000
2022-09-26T03:22:00.312Z,529.920
2022-09-26T03:23:00.305Z,552.960
2022-09-26T03:24:00.286Z,578.880
2022-09-26T03:25:00.512Z,601.920
2022-09-26T03:26:00.312Z,624.960
2022-09-26T03:27:00.397Z,645.120
2022-09-26T03:28:00.305Z,662.400
2022-09-26T03:29:00.373Z,673.920
2022-09-26T03:30:00.297Z,676.800
2022-09-26T03:31:00.566Z,679.680
2022-09-26T03:32:00.388Z,676.800
2022-09-26T03:33:00.313Z,676.800
2022-09-26T03:34:00.314Z,676.800
2022-09-26T03:35:00.280Z,673.920
2022-09-26T03:36:00.310Z,671.040
2022-09-26T03:37:00.459Z,662.400
2022-09-26T03:38:00.293Z,653.760
2022-09-26T03:39:00.288Z,645.120
2022-09-26T03:40:00.311Z,633.600
2022-09-26T03:41:00.354Z,627.840
2022-09-26T03:42:00.288Z,630.720
2022-09-26T03:43:00.442Z,642.240
2022-09-26T03:44:00.301Z,656.640
2022-09-26T03:45:00.314Z,673.920
2022-09-26T03:46:00.431Z,691.200
2022-09-26T03:47:00.311Z,711.360
2022-09-26T03:48:00.327Z,731.520
2022-09-26T03:49:00.478Z,748.800
2022-09-26T03:50:00.366Z,771.840
2022-09-26T03:51:00.387Z,789.120
2022-09-26T03:52:00.271Z,812.160
2022-09-26T03:53:00.337Z,835.200
2022-09-26T03:54:00.296Z,858.240
2022-09-26T03:55:00.398Z,881.280
2022-09-26T03:56:00.282Z,910.080
2022-09-26T03:57:00.325Z,921.600
2022-09-26T03:58:00.300Z,938.880
2022-09-26T03:59:00.310Z,961.920
2022-09-26T04:00:00.295Z,979.200
2022-09-26T04:01:00.576Z,1002.240
2022-09-26T04:02:00.448Z,1071.360
2022-09-26T04:03:00.295Z,1094.400
2022-09-26T04:04:00.315Z,1111.680
2022-09-26T04:05:00.287Z,1134.720
2022-09-26T04:06:00.307Z,1157.760
2022-09-26T04:07:00.618Z,1175.040
2022-09-26T04:08:00.299Z,1192.320
2022-09-26T04:09:00.278Z,1215.360
2022-09-26T04:10:00.315Z,1232.640
2022-09-26T04:11:00.323Z,1249.920
2022-09-26T04:12:00.312Z,1267.200
2022-09-26T04:13:00.408Z,1278.720
2022-09-26T04:14:00.276Z,1290.240
2022-09-26T04:15:00.308Z,1296.000
2022-09-26T04:16:00.555Z,1307.520
2022-09-26T04:17:00.293Z,1307.520
2022-09-26T04:18:00.372Z,1313.280
2022-09-26T04:19:00.489Z,1324.800
2022-09-26T04:20:00.295Z,1330.560
2022-09-26T04:21:00.322Z,1330.560
2022-09-26T04:22:00.299Z,1336.320
2022-09-26T04:23:00.288Z,1342.080
2022-09-26T04:24:00.338Z,1347.840
2022-09-26T04:25:00.546Z,1353.600
2022-09-26T04:26:00.295Z,1359.360
2022-09-26T04:27:00.317Z,1365.120
2022-09-26T04:28:00.302Z,1365.120
2022-09-26T04:29:00.278Z,1370.880
2022-09-26T04:30:00.313Z,1376.640
2022-09-26T04:31:00.531Z,1382.400
2022-09-26T04:32:00.421Z,1382.400
2022-09-26T04:33:00.303Z,1388.160
2022-09-26T04:34:00.302Z,1388.160
2022-09-26T04:35:00.325Z,1388.160
2022-09-26T04:36:00.301Z,1393.920
2022-09-26T04:37:00.506Z,1393.920
2022-09-26T04:38:00.291Z,1393.920
2022-09-26T04:39:00.331Z,1393.920
2022-09-26T04:40:00.312Z,1393.920
2022-09-26T04:41:00.341Z,1393.920
2022-09-26T04:42:00.377Z,1393.920
2022-09-26T04:44:00.430Z,1399.680
2022-09-26T04:45:00.348Z,1405.440
2022-09-26T04:46:00.532Z,1411.200
2022-09-26T04:47:00.270Z,1411.200
2022-09-26T04:48:00.317Z,1411.200
2022-09-26T04:49:00.303Z,1411.200
2022-09-26T04:50:00.437Z,1411.200
2022-09-26T04:51:00.309Z,1411.200
2022-09-26T04:52:00.328Z,1411.200
2022-09-26T04:53:00.284Z,1416.960
2022-09-26T04:54:00.321Z,1416.960
2022-09-26T04:55:00.323Z,1422.720
2022-09-26T04:56:00.677Z,1428.480
2022-09-26T04:57:00.317Z,1445.760
2022-09-26T04:58:00.289Z,1468.800
2022-09-26T04:59:00.315Z,1520.640
2022-09-26T05:00:00.298Z,2972.160
2022-09-26T05:01:00.476Z,8340.480
2022-09-26T05:02:00.510Z,8616.960
2022-09-26T05:03:00.302Z,4631.040
2022-09-26T05:04:00.382Z,1831.680
2022-09-26T05:05:00.293Z,1797.120
2022-09-26T05:06:00.290Z,1923.840
2022-09-26T05:07:00.324Z,5160.960
2022-09-26T05:08:00.477Z,10506.240
2022-09-26T05:09:00.278Z,13639.680
2022-09-26T05:10:00.312Z,13731.840
2022-09-26T05:11:00.294Z,13824.000
2022-09-26T05:12:00.299Z,13916.160
2022-09-26T05:13:00.314Z,14008.320
2022-09-26T05:14:00.510Z,14008.320
2022-09-26T05:15:00.305Z,14100.480
2022-09-26T05:16:00.371Z,14192.640
2022-09-26T05:17:00.550Z,14192.640
2022-09-26T05:18:00.338Z,14284.800
2022-09-26T05:19:00.310Z,14284.800
2022-09-26T05:20:00.547Z,14376.960
2022-09-26T05:21:00.334Z,14376.960
2022-09-26T05:22:00.360Z,14469.120
2022-09-26T05:23:00.320Z,14469.120
2022-09-26T05:24:00.281Z,14561.280
2022-09-26T05:25:00.302Z,14653.440
2022-09-26T05:26:00.449Z,14745.600
2022-09-26T05:27:00.301Z,14837.760
2022-09-26T05:28:00.318Z,14837.760
2022-09-26T05:29:07.064Z,14929.920
2022-09-26T05:30:00.304Z,15022.080
2022-09-26T05:31:00.314Z,15022.080
2022-09-26T05:32:00.494Z,15114.240
2022-09-26T05:33:00.319Z,15206.400
2022-09-26T05:34:00.302Z,15206.400
2022-09-26T05:35:00.295Z,15298.560
2022-09-26T05:36:00.309Z,15390.720
2022-09-26T05:37:00.289Z,15114.240
2022-09-26T05:38:00.445Z,15114.240
2022-09-26T05:39:00.307Z,15206.400
2022-09-26T05:40:00.283Z,15022.080
2022-09-26T05:41:00.311Z,14929.920
2022-09-26T05:42:00.306Z,15114.240
2022-09-26T05:43:00.289Z,15482.880
2022-09-26T05:44:00.424Z,15851.520
2022-09-26T05:45:00.321Z,15298.560
2022-09-26T05:46:00.297Z,14653.440
2022-09-26T05:47:00.557Z,14929.920
2022-09-26T05:48:00.291Z,15759.360
2022-09-26T05:49:00.311Z,16128.000
2022-09-26T05:50:00.431Z,16128.000
2022-09-26T05:51:00.285Z,16220.160
2022-09-26T05:52:00.351Z,16220.160
2022-09-26T05:53:00.292Z,15759.360
2022-09-26T05:54:00.280Z,15206.400
2022-09-26T05:55:00.328Z,15298.560
2022-09-26T05:56:00.525Z,16128.000
2022-09-26T05:57:00.349Z,16496.641
2022-09-26T05:58:00.301Z,16496.641
2022-09-26T05:59:00.293Z,16496.641
2022-09-26T06:00:00.296Z,16588.801
2022-09-26T06:01:00.334Z,16588.801
2022-09-26T06:02:00.562Z,16680.961
2022-09-26T06:03:00.559Z,16773.119
2022-09-26T06:04:00.296Z,16773.119
2022-09-26T06:05:00.319Z,16773.119
2022-09-26T06:06:00.272Z,16865.279
2022-09-26T06:07:00.335Z,16957.439
2022-09-26T06:08:00.426Z,16957.439
2022-09-26T06:09:00.300Z,17141.760
2022-09-26T06:10:00.308Z,17141.760
2022-09-26T06:11:00.324Z,17141.760
2022-09-26T06:12:00.293Z,17233.920
2022-09-26T06:13:00.316Z,17326.080
2022-09-26T06:14:00.916Z,17418.240
2022-09-26T06:15:00.322Z,17510.400
2022-09-26T06:16:00.695Z,17510.400
2022-09-26T06:17:00.496Z,17602.561
2022-09-26T06:18:00.556Z,17694.721
2022-09-26T06:19:00.544Z,17786.881
2022-09-26T06:20:00.367Z,17786.881
2022-09-26T06:21:00.292Z,17786.881
2022-09-26T06:22:00.359Z,17879.039
2022-09-26T06:23:00.285Z,17971.199
2022-09-26T06:24:00.286Z,17879.039
2022-09-26T06:25:00.311Z,18063.359
2022-09-26T06:26:00.434Z,18155.520
2022-09-26T06:27:00.288Z,18155.520
2022-09-26T06:28:00.535Z,18247.680
2022-09-26T06:29:00.597Z,18339.840
2022-09-26T06:30:00.323Z,18339.840
2022-09-26T06:31:00.334Z,18432.000
2022-09-26T06:32:00.622Z,18432.000
2022-09-26T06:33:00.328Z,18524.160
2022-09-26T06:34:00.412Z,18616.320
2022-09-26T06:35:00.310Z,18616.320
2022-09-26T06:36:00.278Z,18616.320
2022-09-26T06:37:00.295Z,18616.320
2022-09-26T06:38:00.410Z,18155.520
2022-09-26T06:39:00.275Z,18616.320
2022-09-26T06:40:00.318Z,18892.801
2022-09-26T06:41:00.455Z,18984.961
2022-09-26T06:42:00.366Z,18984.961
2022-09-26T06:43:00.302Z,19077.119
2022-09-26T06:44:00.416Z,19169.279
2022-09-26T06:45:00.321Z,19261.439
2022-09-26T06:46:00.288Z,19261.439
2022-09-26T06:47:00.470Z,19353.600
2022-09-26T06:48:00.296Z,19445.760
2022-09-26T06:49:00.525Z,19445.760
2022-09-26T06:50:00.405Z,19537.920
2022-09-26T06:51:00.425Z,19537.920
2022-09-26T06:52:00.296Z,19630.080
2022-09-26T06:53:06.867Z,19722.240
2022-09-26T06:54:00.301Z,19814.400
2022-09-26T06:55:00.292Z,19814.400
2022-09-26T06:56:00.467Z,19814.400
2022-09-26T06:57:00.320Z,19814.400
2022-09-26T06:58:00.295Z,19998.721
2022-09-26T06:59:00.287Z,20090.881
2022-09-26T07:00:00.327Z,20183.039
2022-09-26T07:01:00.527Z,20183.039
2022-09-26T07:02:00.636Z,20275.199
2022-09-26T07:03:00.297Z,20367.359
2022-09-26T07:04:00.435Z,20367.359
2022-09-26T07:05:00.353Z,20367.359
2022-09-26T07:06:00.285Z,20367.359
2022-09-26T07:07:00.319Z,20459.520
2022-09-26T07:08:00.523Z,20551.680
2022-09-26T07:09:03.877Z,20643.840
2022-09-26T07:10:00.297Z,20643.840
2022-09-26T07:11:21.228Z,20736.000
2022-09-26T07:12:14.942Z,20828.160
2022-09-26T07:13:00.296Z,20828.160
2022-09-26T07:14:00.457Z,20828.160
2022-09-26T07:15:00.304Z,20920.320
2022-09-26T07:16:00.378Z,21012.480
2022-09-26T07:17:00.301Z,21012.480
2022-09-26T07:18:00.323Z,21104.641
2022-09-26T07:19:00.295Z,21104.641
2022-09-26T07:20:00.477Z,21196.801
2022-09-26T07:21:00.308Z,21196.801
2022-09-26T07:22:00.319Z,21381.119
2022-09-26T07:23:00.517Z,21381.119
2022-09-26T07:24:00.309Z,21381.119
2022-09-26T07:25:00.280Z,21473.279
2022-09-26T07:26:00.557Z,21473.279
2022-09-26T07:27:00.807Z,21473.279
2022-09-26T07:28:00.290Z,21565.439
2022-09-26T07:29:00.342Z,21657.600
2022-09-26T07:30:00.298Z,21749.760
2022-09-26T07:31:00.383Z,21749.760
2022-09-26T07:32:00.461Z,21749.760
2022-09-26T07:33:00.317Z,21749.760
2022-09-26T07:34:00.298Z,21749.760
2022-09-26T07:35:00.453Z,21841.920
2022-09-26T07:36:04.564Z,21841.920
2022-09-26T07:37:00.293Z,21934.080
2022-09-26T07:38:00.599Z,21934.080
2022-09-26T07:39:00.320Z,22026.240
2022-09-26T07:40:01.841Z,22118.400
2022-09-26T07:41:00.494Z,22210.561
2022-09-26T07:42:00.369Z,22302.721
2022-09-26T07:43:18.692Z,22210.561
2022-09-26T07:45:27.755Z,22210.561
2022-09-26T07:46:00.448Z,22210.561
2022-09-26T07:47:00.428Z,22210.561
2022-09-26T07:48:00.429Z,22118.400
2022-09-26T07:49:00.416Z,22210.561
2022-09-26T07:50:00.661Z,22302.721
2022-09-26T07:51:00.358Z,22394.881
2022-09-26T07:52:00.567Z,22394.881
2022-09-26T07:53:00.289Z,22487.039
2022-09-26T07:54:00.297Z,22487.039
2022-09-26T07:55:00.293Z,22579.199
2022-09-26T07:56:00.415Z,22487.039
2022-09-26T07:57:00.304Z,22487.039
2022-09-26T07:58:00.281Z,22579.199
2022-09-26T07:59:00.306Z,22579.199
2022-09-26T08:00:00.310Z,22671.359
2022-09-26T08:01:00.312Z,22671.359
2022-09-26T08:02:00.506Z,22763.520
2022-09-26T08:03:00.333Z,22855.680
2022-09-26T08:04:00.304Z,22947.840
2022-09-26T08:05:01.327Z,22947.840
2022-09-26T08:06:00.412Z,22947.840
2022-09-26T08:07:00.307Z,22947.840
2022-09-26T08:08:00.524Z,22947.840
2022-09-26T08:09:00.491Z,22947.840
2022-09-26T08:10:00.316Z,23040.000
2022-09-26T08:11:03.923Z,23132.160
2022-09-26T08:12:00.299Z,23132.160
2022-09-26T08:13:00.369Z,23224.320
2022-09-26T08:14:00.485Z,23316.480
2022-09-26T08:15:00.355Z,23316.480
2022-09-26T08:16:00.390Z,23316.480
2022-09-26T08:17:00.297Z,23316.480
2022-09-26T08:18:00.307Z,23316.480
2022-09-26T08:19:00.320Z,23408.641
2022-09-26T08:20:00.457Z,23500.801
2022-09-26T08:21:00.302Z,23316.480
2022-09-26T08:22:00.325Z,23408.641
2022-09-26T08:23:00.288Z,23408.641
2022-09-26T08:24:00.301Z,23500.801
2022-09-26T08:25:00.343Z,23408.641
2022-09-26T08:26:00.477Z,23592.961
2022-09-26T08:27:00.344Z,23592.961
2022-09-26T08:28:00.308Z,23592.961
2022-09-26T08:29:00.368Z,23592.961
2022-09-26T08:30:00.332Z,23592.961
2022-09-26T08:31:00.382Z,23592.961
2022-09-26T08:32:00.452Z,23592.961
2022-09-26T08:33:00.308Z,23777.279
2022-09-26T08:34:00.365Z,23777.279
2022-09-26T08:35:00.533Z,23777.279
2022-09-26T08:36:00.427Z,23777.279
2022-09-26T08:37:00.304Z,23777.279
2022-09-26T08:38:00.439Z,23777.279
2022-09-26T08:39:00.302Z,23777.279
2022-09-26T08:40:00.287Z,23777.279
2022-09-26T08:41:00.442Z,23777.279
2022-09-26T08:42:00.310Z,23777.279
2022-09-26T08:43:00.327Z,23777.279
2022-09-26T08:44:00.435Z,23777.279
2022-09-26T08:45:00.359Z,23777.279
2022-09-26T08:46:00.322Z,23961.600
2022-09-26T08:47:00.417Z,23777.279
2022-09-26T08:48:00.307Z,23777.279
2022-09-26T08:49:00.295Z,23961.600
2022-09-26T08:50:00.505Z,23961.600
2022-09-26T08:51:00.424Z,23961.600
2022-09-26T08:52:00.382Z,23961.600
2022-09-26T08:53:00.305Z,23961.600
2022-09-26T08:54:00.314Z,23961.600
2022-09-26T08:55:00.297Z,23961.600
2022-09-26T08:56:00.425Z,23961.600
2022-09-26T08:57:00.304Z,23961.600
2022-09-26T08:58:00.307Z,23961.600
2022-09-26T08:59:00.308Z,23961.600
2022-09-26T09:00:00.307Z,23961.600
2022-09-26T09:01:00.287Z,23961.600
2022-09-26T09:02:00.635Z,23961.600
2022-09-26T09:03:00.339Z,24145.920
2022-09-26T09:04:00.291Z,23961.600
2022-09-26T09:05:00.291Z,23961.600
2022-09-26T09:06:00.280Z,23961.600
2022-09-26T09:07:00.477Z,24145.920
2022-09-26T09:08:00.539Z,23961.600
2022-09-26T09:09:00.371Z,23961.600
2022-09-26T09:10:00.314Z,23961.600
2022-09-26T09:11:00.341Z,23961.600
2022-09-26T09:12:00.402Z,23961.600
2022-09-26T09:13:00.309Z,23961.600
2022-09-26T09:14:00.499Z,23961.600
2022-09-26T09:15:23.651Z,24145.920
2022-09-26T09:16:00.351Z,23961.600
2022-09-26T09:17:00.297Z,23961.600
2022-09-26T09:18:00.303Z,23961.600
2022-09-26T09:19:00.315Z,23961.600
2022-09-26T09:20:00.624Z,23961.600
2022-09-26T09:21:00.293Z,23961.600
2022-09-26T09:22:00.382Z,23961.600
2022-09-26T09:23:00.522Z,23961.600
2022-09-26T09:24:00.325Z,23961.600
2022-09-26T09:25:00.295Z,23961.600
2022-09-26T09:28:05.505Z,23777.279
2022-09-26T09:29:00.294Z,23777.279
2022-09-26T09:30:00.294Z,23777.279
2022-09-26T09:31:00.492Z,23777.279
2022-09-26T09:32:00.460Z,23777.279
2022-09-26T09:33:00.304Z,23777.279
2022-09-26T09:34:00.332Z,23777.279
2022-09-26T09:35:00.318Z,23592.961
2022-09-26T09:36:00.324Z,23592.961
2022-09-26T09:37:00.312Z,23592.961
2022-09-26T09:38:00.563Z,23592.961
2022-09-26T09:39:00.321Z,23592.961
2022-09-26T09:40:00.357Z,23592.961
2022-09-26T09:41:00.698Z,23500.801
2022-09-26T09:42:00.309Z,23500.801
2022-09-26T09:43:00.349Z,23500.801
2022-09-26T09:44:00.551Z,23500.801
2022-09-26T09:45:00.324Z,23408.641
2022-09-26T09:46:00.303Z,23408.641
2022-09-26T09:47:00.464Z,23316.480
2022-09-26T09:48:00.352Z,23316.480
2022-09-26T09:49:00.297Z,23224.320
2022-09-26T09:50:00.501Z,23224.320
2022-09-26T09:51:00.311Z,23132.160
2022-09-26T09:52:00.316Z,23132.160
2022-09-26T09:53:00.307Z,23040.000
2022-09-26T09:54:00.635Z,22947.840
2022-09-26T09:55:00.417Z,22855.680
2022-09-26T09:56:00.960Z,22855.680
2022-09-26T09:57:00.299Z,22855.680
2022-09-26T09:58:00.531Z,22763.520
2022-09-26T09:59:00.329Z,22763.520
2022-09-26T10:00:02.143Z,22671.359
2022-09-26T10:01:00.294Z,22579.199
2022-09-26T10:02:00.627Z,22579.199
2022-09-26T10:03:00.372Z,22487.039
2022-09-26T10:04:00.366Z,22394.881
2022-09-26T10:05:00.393Z,22394.881
2022-09-26T10:06:00.319Z,22210.561
2022-09-26T10:07:00.453Z,22118.400
2022-09-26T10:08:00.740Z,22026.240
2022-09-26T10:09:00.561Z,21934.080
2022-09-26T10:10:00.331Z,21934.080
2022-09-26T10:11:00.345Z,21934.080
2022-09-26T10:12:00.300Z,21841.920
2022-09-26T10:13:00.398Z,21749.760
2022-09-26T10:14:00.607Z,21565.439
2022-09-26T10:15:00.512Z,21381.119
2022-09-26T10:16:00.337Z,21288.961
2022-09-26T10:17:00.312Z,21012.480
2022-09-26T10:18:22.950Z,20828.160
2022-09-26T10:19:03.315Z,20643.840
2022-09-26T10:20:00.457Z,20367.359
2022-09-26T10:21:00.303Z,20090.881
2022-09-26T10:22:00.319Z,19814.400
2022-09-26T10:23:00.325Z,19537.920
2022-09-26T10:24:00.488Z,19169.279
2022-09-26T10:25:00.331Z,18708.480
2022-09-26T10:26:00.475Z,18339.840
2022-09-26T10:27:00.408Z,17971.199
2022-09-26T10:28:00.304Z,17418.240
2022-09-26T10:29:00.318Z,17049.600
2022-09-26T10:30:00.416Z,16588.801
2022-09-26T10:31:00.380Z,16128.000
2022-09-26T10:32:00.554Z,15667.200
2022-09-26T10:33:00.319Z,15114.240
2022-09-26T10:34:00.365Z,14653.440
2022-09-26T10:35:00.294Z,14100.480
2022-09-26T10:36:00.324Z,13639.680
2022-09-26T10:37:00.327Z,12718.080
2022-09-26T10:38:00.582Z,10091.520
2022-09-26T10:39:00.548Z,8524.800
2022-09-26T10:40:00.641Z,9262.080
2022-09-26T10:41:00.508Z,10598.400
2022-09-26T10:42:00.295Z,10137.600
2022-09-26T10:43:00.406Z,8017.920
2022-09-26T10:44:00.466Z,5598.720
2022-09-26T10:45:00.417Z,3870.720
2022-09-26T10:46:00.492Z,3317.760
2022-09-26T10:47:00.423Z,4170.240
2022-09-26T10:48:00.297Z,5598.720
2022-09-26T10:49:00.416Z,6681.600
2022-09-26T10:50:00.807Z,7004.160
2022-09-26T10:51:00.325Z,6773.760
2022-09-26T10:52:01.495Z,6312.960
2022-09-26T10:53:00.339Z,5852.160
2022-09-26T10:54:00.312Z,5391.360
2022-09-26T10:55:00.529Z,4953.600
2022-09-26T10:56:00.437Z,4538.880
2022-09-26T10:57:00.293Z,4170.240
2022-09-26T10:58:00.333Z,3847.680
2022-09-26T10:59:00.425Z,2995.200
2022-09-26T11:00:00.314Z,3317.760
2022-09-26T11:01:00.382Z,3110.400
2022-09-26T11:02:00.505Z,2949.120
2022-09-26T11:03:00.284Z,2810.880
2022-09-26T11:04:00.397Z,2718.720
2022-09-26T11:05:00.432Z,2638.080
2022-09-26T11:06:00.392Z,2580.480
2022-09-26T11:07:00.368Z,2557.440
2022-09-26T11:08:00.781Z,2522.880
2022-09-26T11:09:00.337Z,2511.360
2022-09-26T11:10:00.563Z,2499.840
2022-09-26T11:11:00.373Z,2488.320
2022-09-26T11:12:00.357Z,2488.320
2022-09-26T11:13:00.348Z,2476.800
2022-09-26T11:14:00.518Z,2476.800
2022-09-26T11:15:00.386Z,2465.280
2022-09-26T11:16:00.386Z,2465.280
2022-09-26T11:17:00.327Z,2453.760
2022-09-26T11:18:00.365Z,2419.200
2022-09-26T11:19:00.335Z,2430.720
2022-09-26T11:20:00.442Z,2407.680
2022-09-26T11:21:00.334Z,2396.160
2022-09-26T11:22:03.229Z,2361.600
2022-09-26T11:23:00.312Z,2350.080
2022-09-26T11:24:00.349Z,2350.080
2022-09-26T11:25:00.575Z,2338.560
2022-09-26T11:26:00.473Z,2338.560
2022-09-26T11:27:00.393Z,2338.560
2022-09-26T11:28:00.311Z,2338.560
2022-09-26T11:29:00.310Z,2327.040
2022-09-26T11:30:00.388Z,2350.080
2022-09-26T11:31:00.440Z,2338.560
2022-09-26T11:32:00.620Z,2327.040
2022-09-26T11:33:00.282Z,2338.560
2022-09-26T11:34:00.293Z,2315.520
2022-09-26T11:35:00.289Z,2315.520
2022-09-26T11:36:00.283Z,2280.960
2022-09-26T11:37:00.290Z,2280.960
2022-09-26T11:38:00.438Z,2257.920
2022-09-26T11:39:00.322Z,2234.880
2022-09-26T11:40:00.373Z,2234.880
2022-09-26T11:41:00.506Z,2200.320
2022-09-26T11:42:00.284Z,2188.800
2022-09-26T11:43:00.306Z,2177.280
2022-09-26T11:44:00.406Z,2165.760
2022-09-26T11:45:00.321Z,2142.720
2022-09-26T11:46:00.375Z,2142.720
2022-09-26T11:47:00.352Z,2142.720
2022-09-26T11:48:00.375Z,2119.680
2022-09-26T11:49:00.295Z,2108.160
2022-09-26T11:50:00.540Z,2096.640
2022-09-26T11:51:00.279Z,2085.120
2022-09-26T11:52:00.275Z,2096.640
2022-09-26T11:53:00.343Z,2073.600
2022-09-26T11:54:00.306Z,2073.600
2022-09-26T11:55:00.308Z,2062.080